createdAt,value
2022-12-03T00:00:20.608Z,16.83
2022-12-03T00:02:48.869Z,16.60
2022-12-03T00:05:17.010Z,16.17
2022-12-03T00:07:45.085Z,17.30
2022-12-03T00:10:14.531Z,18.00
2022-12-03T00:12:42.633Z,16.77
2022-12-03T00:15:12.577Z,19.77
2022-12-03T00:17:40.608Z,16.47
2022-12-03T00:20:10.219Z,14.60
2022-12-03T00:22:38.271Z,17.50
2022-12-03T00:25:07.319Z,18.80
2022-12-03T00:27:36.693Z,16.50
2022-12-03T00:30:05.516Z,15.00
2022-12-03T00:32:33.553Z,17.37
2022-12-03T00:35:01.578Z,18.30
2022-12-03T00:37:30.556Z,16.90
2022-12-03T00:39:58.575Z,19.17
2022-12-03T00:42:26.645Z,16.83
2022-12-03T00:44:56.168Z,18.27
2022-12-03T00:47:24.322Z,20.53
2022-12-03T00:49:52.983Z,17.37
2022-12-03T00:52:21.113Z,21.90
2022-12-03T00:54:50.475Z,16.33
2022-12-03T00:57:19.065Z,18.03
2022-12-03T00:59:47.187Z,18.90
2022-12-03T01:02:16.965Z,16.10
2022-12-03T01:04:45.175Z,15.30
2022-12-03T01:07:13.331Z,19.87
2022-12-03T01:09:41.346Z,17.27
2022-12-03T01:12:09.454Z,19.57
2022-12-03T01:14:37.681Z,18.33
2022-12-03T01:17:06.901Z,17.30
2022-12-03T01:19:36.552Z,17.30
2022-12-03T01:22:04.759Z,18.83
2022-12-03T01:24:32.866Z,18.80
2022-12-03T01:27:01.019Z,17.20
2022-12-03T01:29:29.033Z,16.17
2022-12-03T01:32:14.865Z,17.90
2022-12-03T01:34:44.474Z,17.27
2022-12-03T01:37:12.529Z,18.53
2022-12-03T01:39:40.702Z,19.13
2022-12-03T01:42:09.526Z,17.77
2022-12-03T01:44:38.483Z,15.30
2022-12-03T01:47:08.266Z,18.10
2022-12-03T01:49:40.675Z,16.10
2022-12-03T01:52:12.661Z,18.27
2022-12-03T01:54:43.132Z,17.33
2022-12-03T01:57:20.429Z,16.83
2022-12-03T01:59:48.767Z,16.60
2022-12-03T02:02:22.157Z,16.10
2022-12-03T02:05:00.319Z,21.30
2022-12-03T02:07:40.507Z,15.53
2022-12-03T02:10:19.185Z,17.47
2022-12-03T02:12:53.182Z,19.20
2022-12-03T02:15:37.575Z,18.33
2022-12-03T02:18:16.190Z,17.27
2022-12-03T02:20:50.732Z,17.37
2022-12-03T02:23:30.920Z,16.43
2022-12-03T02:26:10.862Z,14.33
2022-12-03T02:28:40.146Z,14.67
2022-12-03T02:31:12.312Z,16.37
2022-12-03T02:33:45.791Z,20.50
2022-12-03T02:36:16.567Z,15.43
2022-12-03T02:38:54.385Z,19.27
2022-12-03T02:41:41.434Z,18.70
2022-12-03T02:44:12.057Z,19.33
2022-12-03T02:46:47.511Z,18.80
2022-12-03T02:49:18.343Z,19.60
2022-12-03T02:51:55.577Z,15.33
2022-12-03T02:54:33.075Z,15.90
2022-12-03T02:57:05.528Z,17.40
2022-12-03T02:59:33.785Z,14.10
2022-12-03T03:02:03.735Z,17.80
2022-12-03T03:04:40.732Z,17.33
2022-12-03T03:07:12.439Z,16.83
2022-12-03T03:09:44.211Z,21.03
2022-12-03T03:12:24.864Z,14.67
2022-12-03T03:14:57.004Z,14.00
2022-12-03T03:17:27.774Z,16.00
2022-12-03T03:19:57.500Z,17.13
2022-12-03T03:22:38.565Z,16.80
2022-12-03T03:25:15.507Z,14.10
2022-12-03T03:27:46.228Z,18.93
2022-12-03T03:30:27.249Z,15.83
2022-12-03T03:32:57.556Z,18.67
2022-12-03T03:35:29.080Z,20.27
2022-12-03T03:38:06.023Z,18.50
2022-12-03T03:40:37.882Z,17.77
2022-12-03T03:43:21.819Z,16.77
2022-12-03T03:45:52.109Z,19.63
2022-12-03T03:48:31.668Z,20.43
2022-12-03T03:51:01.199Z,18.50
2022-12-03T03:53:38.566Z,19.40
2022-12-03T03:56:11.335Z,18.17
2022-12-03T03:58:41.237Z,19.47
2022-12-03T04:01:17.447Z,18.20
2022-12-03T04:03:50.575Z,20.47
2022-12-03T04:06:25.058Z,18.80
2022-12-03T04:08:53.445Z,16.37
2022-12-03T04:14:40.903Z,16.23
2022-12-03T04:17:09.514Z,17.80
2022-12-03T04:19:40.447Z,17.33
2022-12-03T04:22:28.273Z,18.33
2022-12-03T04:25:22.468Z,18.27
2022-12-03T04:28:21.046Z,15.60
2022-12-03T04:31:02.550Z,16.67
2022-12-03T04:33:52.071Z,17.47
2022-12-03T04:36:20.935Z,18.23
2022-12-03T04:38:53.159Z,15.17
2022-12-03T04:41:28.953Z,16.87
2022-12-03T04:44:19.163Z,17.03
2022-12-03T04:46:58.272Z,15.50
2022-12-03T04:49:32.227Z,18.30
2022-12-03T04:52:01.199Z,20.40
2022-12-03T04:54:37.606Z,20.60
2022-12-03T04:57:08.145Z,22.57
2022-12-03T04:59:39.773Z,21.03
2022-12-03T05:02:14.701Z,18.97
2022-12-03T05:04:53.800Z,21.43
2022-12-03T05:07:26.131Z,22.10
2022-12-03T05:09:57.576Z,20.23
2022-12-03T05:12:25.955Z,21.13
2022-12-03T05:14:54.496Z,21.20
2022-12-03T05:17:31.965Z,21.07
2022-12-03T05:20:17.880Z,20.97
2022-12-03T05:22:48.451Z,17.47
2022-12-03T05:25:24.758Z,20.80
2022-12-03T05:27:56.102Z,21.50
2022-12-03T05:30:28.373Z,20.60
2022-12-03T05:33:15.837Z,19.07
2022-12-03T05:35:46.621Z,20.07
2022-12-03T05:38:18.256Z,21.53
2022-12-03T05:40:55.951Z,22.73
2022-12-03T05:43:23.384Z,20.47
2022-12-03T05:45:54.875Z,25.53
2022-12-03T05:48:29.496Z,25.70
2022-12-03T05:51:00.110Z,21.50
2022-12-03T05:53:29.921Z,22.20
2022-12-03T05:55:58.667Z,19.57
2022-12-03T05:58:31.338Z,20.57
2022-12-03T06:01:09.854Z,23.23
2022-12-03T06:03:43.446Z,21.20
2022-12-03T06:06:14.892Z,26.00
2022-12-03T06:08:53.172Z,26.57
2022-12-03T06:11:27.071Z,24.10
2022-12-03T06:13:57.823Z,26.60
2022-12-03T06:16:26.276Z,22.33
2022-12-03T06:19:08.123Z,23.80
2022-12-03T06:21:36.168Z,24.90
2022-12-03T06:24:04.336Z,22.33
2022-12-03T06:26:32.399Z,23.40
2022-12-03T06:29:00.563Z,21.70
2022-12-03T06:31:28.758Z,22.23
2022-12-03T06:33:58.304Z,25.47
2022-12-03T06:36:27.702Z,26.27
2022-12-03T06:38:55.752Z,24.63
2022-12-03T06:41:23.818Z,21.17
2022-12-03T06:43:51.969Z,23.93
2022-12-03T06:46:20.054Z,23.60
2022-12-03T06:48:48.154Z,25.10
2022-12-03T06:51:17.688Z,23.70
2022-12-03T06:53:45.817Z,29.03
2022-12-03T06:56:14.015Z,25.60
2022-12-03T06:58:42.103Z,28.93
2022-12-03T07:01:10.233Z,26.97
2022-12-03T07:03:38.529Z,26.80
2022-12-03T07:06:07.093Z,23.33
2022-12-03T07:08:36.590Z,30.63
2022-12-03T07:11:04.757Z,25.13
2022-12-03T07:13:32.851Z,27.57
2022-12-03T07:16:00.956Z,27.47
2022-12-03T07:18:29.007Z,24.80
2022-12-03T07:20:57.165Z,27.40
2022-12-03T07:23:25.217Z,33.10
2022-12-03T07:25:54.591Z,24.80
2022-12-03T07:28:22.670Z,28.00
2022-12-03T07:30:50.791Z,28.77
2022-12-03T07:33:18.937Z,26.20
2022-12-03T07:35:46.907Z,30.50
2022-12-03T07:38:14.962Z,27.30
2022-12-03T07:40:43.171Z,31.73
2022-12-03T07:43:12.706Z,36.30
2022-12-03T07:45:40.885Z,29.40
2022-12-03T07:48:09.221Z,27.80
2022-12-03T07:50:37.282Z,31.27
2022-12-03T07:53:05.377Z,30.17
2022-12-03T07:55:33.558Z,27.47
2022-12-03T07:58:01.582Z,26.60
2022-12-03T08:00:31.058Z,30.20
2022-12-03T08:02:59.101Z,25.00
2022-12-03T08:05:29.595Z,24.90
2022-12-03T08:07:57.835Z,25.80
2022-12-03T08:10:26.796Z,28.50
2022-12-03T08:13:00.302Z,25.90
2022-12-03T08:15:35.356Z,32.23
2022-12-03T08:18:14.164Z,27.73
2022-12-03T08:20:43.434Z,28.63
2022-12-03T08:23:15.170Z,30.50
2022-12-03T08:25:44.208Z,33.47
2022-12-03T08:28:17.091Z,32.70
2022-12-03T08:30:48.897Z,32.50
2022-12-03T08:33:21.453Z,35.77
2022-12-03T08:35:52.044Z,29.93
2022-12-03T08:38:23.078Z,38.27
2022-12-03T08:40:52.734Z,32.17
2022-12-03T08:43:21.573Z,31.87
2022-12-03T08:45:52.088Z,33.80
2022-12-03T08:48:33.725Z,36.67
2022-12-03T08:51:05.007Z,32.37
2022-12-03T08:53:35.963Z,37.77
2022-12-03T08:56:06.379Z,36.87
2022-12-03T08:58:39.836Z,36.00
2022-12-03T09:01:32.104Z,37.33
2022-12-03T09:04:12.597Z,33.23
2022-12-03T09:06:41.106Z,37.63
2022-12-03T09:09:09.217Z,34.60
2022-12-03T09:11:37.537Z,40.43
2022-12-03T09:14:05.667Z,34.47
2022-12-03T09:16:35.268Z,33.23
2022-12-03T09:19:03.398Z,35.87
2022-12-03T09:21:31.475Z,33.37
2022-12-03T09:23:59.522Z,33.23
2022-12-03T09:26:29.787Z,32.30
2022-12-03T09:28:57.825Z,32.87
2022-12-03T09:31:25.938Z,32.23
2022-12-03T09:33:55.428Z,30.13
2022-12-03T09:36:23.489Z,32.37
2022-12-03T09:38:51.599Z,29.20
2022-12-03T09:41:19.733Z,28.50
2022-12-03T09:44:03.814Z,31.70
2022-12-03T09:46:32.979Z,31.17
2022-12-03T09:49:03.344Z,29.90
2022-12-03T09:51:35.839Z,37.07
2022-12-03T09:54:06.356Z,35.00
2022-12-03T09:56:38.302Z,30.53
2022-12-03T09:59:08.309Z,35.20
2022-12-03T10:01:37.009Z,31.90
2022-12-03T10:04:06.543Z,31.10
2022-12-03T10:06:34.764Z,32.13
2022-12-03T10:09:02.839Z,33.70
2022-12-03T10:11:31.891Z,34.67
2022-12-03T10:14:00.081Z,35.80
2022-12-03T10:16:30.759Z,33.70
2022-12-03T10:19:01.058Z,36.20
2022-12-03T10:21:33.280Z,32.20
2022-12-03T10:24:25.755Z,34.37
2022-12-03T10:26:55.433Z,39.10
2022-12-03T10:29:31.380Z,36.33
2022-12-03T10:32:04.063Z,37.20
2022-12-03T10:34:33.779Z,37.03
2022-12-03T10:37:15.029Z,42.70
2022-12-03T10:40:00.771Z,38.93
2022-12-03T10:42:30.609Z,39.87
2022-12-03T10:45:09.919Z,42.20
2022-12-03T10:47:39.445Z,44.90
2022-12-03T10:50:16.974Z,41.77
2022-12-03T10:52:47.038Z,39.47
2022-12-03T10:55:18.388Z,49.00
2022-12-03T10:57:47.121Z,42.30
2022-12-03T11:00:20.018Z,46.63
2022-12-03T11:02:54.928Z,40.23
2022-12-03T11:05:28.003Z,42.53
2022-12-03T11:07:58.399Z,42.23
2022-12-03T11:10:26.637Z,46.40
2022-12-03T11:13:29.619Z,48.53
2022-12-03T11:15:58.457Z,49.47
2022-12-03T11:19:02.390Z,49.60
2022-12-03T11:21:31.622Z,51.53
2022-12-03T11:24:22.846Z,47.30
2022-12-03T11:27:24.467Z,54.77
2022-12-03T11:29:57.699Z,47.53
2022-12-03T11:33:00.457Z,51.57
2022-12-03T11:35:29.820Z,55.33
2022-12-03T11:38:41.111Z,50.10
2022-12-03T11:41:11.791Z,43.63
2022-12-03T11:44:13.890Z,45.63
2022-12-03T11:46:43.754Z,50.67
2022-12-03T11:49:33.057Z,52.40
2022-12-03T11:52:04.086Z,50.43
2022-12-03T11:54:36.240Z,51.43
2022-12-03T11:57:26.243Z,47.87
2022-12-03T12:00:02.940Z,46.80
2022-12-03T12:02:40.091Z,49.10
2022-12-03T12:05:26.203Z,47.80
2022-12-03T12:07:55.026Z,47.80
2022-12-03T12:10:43.769Z,46.43
2022-12-03T12:13:28.389Z,48.53
2022-12-03T12:15:59.489Z,47.53
2022-12-03T12:18:42.432Z,46.43
2022-12-03T12:21:47.688Z,48.40
2022-12-03T12:24:33.286Z,51.17
2022-12-03T12:27:04.680Z,43.47
2022-12-03T12:29:34.415Z,47.00
2022-12-03T12:32:08.911Z,46.20
2022-12-03T12:34:38.463Z,40.13
2022-12-03T12:37:11.658Z,44.53
2022-12-03T12:39:39.961Z,44.13
2022-12-03T12:42:25.412Z,42.50
2022-12-03T12:44:55.238Z,42.87
2022-12-03T12:47:23.341Z,42.20
2022-12-03T12:49:52.041Z,45.63
2022-12-03T12:52:20.478Z,41.90
2022-12-03T12:54:48.657Z,45.13
2022-12-03T12:57:23.278Z,44.07
2022-12-03T12:59:52.488Z,49.80
2022-12-03T13:02:38.370Z,42.00
2022-12-03T13:05:07.146Z,41.17
2022-12-03T13:07:35.242Z,42.50
2022-12-03T13:10:21.297Z,42.40
2022-12-03T13:12:49.406Z,46.70
2022-12-03T13:15:33.909Z,48.30
2022-12-03T13:18:24.853Z,47.20
2022-12-03T13:20:53.131Z,50.90
2022-12-03T13:23:36.685Z,49.47
2022-12-03T13:26:30.361Z,48.27
2022-12-03T13:29:08.308Z,47.47
2022-12-03T13:31:43.527Z,48.17
2022-12-03T13:34:18.007Z,49.27
2022-12-03T13:36:50.728Z,48.23
2022-12-03T13:39:28.941Z,56.87
2022-12-03T13:42:14.210Z,45.13
2022-12-03T13:44:45.717Z,50.83
2022-12-03T13:47:15.308Z,51.73
2022-12-03T13:49:49.145Z,54.10
2022-12-03T13:52:18.409Z,48.80
2022-12-03T13:54:46.594Z,48.57
2022-12-03T13:57:14.653Z,54.40
2022-12-03T13:59:42.719Z,53.87
2022-12-03T14:02:12.878Z,56.17
2022-12-03T14:04:41.839Z,58.17
2022-12-03T14:07:11.255Z,59.97
2022-12-03T14:09:39.329Z,56.83
2022-12-03T14:12:21.490Z,58.90
2022-12-03T14:14:50.935Z,69.93
2022-12-03T14:17:19.236Z,59.03
2022-12-03T14:19:47.451Z,67.93
2022-12-03T14:22:18.769Z,65.33
2022-12-03T14:24:46.809Z,61.10
2022-12-03T14:27:15.296Z,71.13
2022-12-03T14:29:43.455Z,68.97
2022-12-03T14:32:11.592Z,72.37
2022-12-03T14:34:39.806Z,67.83
2022-12-03T14:37:07.921Z,74.00
2022-12-03T14:39:38.143Z,63.53
2022-12-03T14:42:15.391Z,70.80
2022-12-03T14:44:45.134Z,78.30
2022-12-03T14:47:13.931Z,76.33
2022-12-03T14:49:42.147Z,66.43
2022-12-03T14:52:12.518Z,66.50
2022-12-03T14:54:43.185Z,66.57
2022-12-03T14:57:12.564Z,74.23
2022-12-03T14:59:41.129Z,67.47
2022-12-03T15:02:09.748Z,67.53
2022-12-03T15:04:38.300Z,69.57
2022-12-03T15:07:07.532Z,68.33
2022-12-03T15:09:36.041Z,68.47
2022-12-03T15:12:06.271Z,62.03
2022-12-03T15:14:34.342Z,67.37
2022-12-03T15:17:04.927Z,60.00
2022-12-03T15:19:33.092Z,70.47
2022-12-03T15:22:01.166Z,58.20
2022-12-03T15:24:29.364Z,67.73
2022-12-03T15:26:57.491Z,58.60
2022-12-03T15:29:27.400Z,60.60
2022-12-03T15:31:59.344Z,61.60
2022-12-03T15:34:28.576Z,57.53
2022-12-03T15:36:56.937Z,59.23
2022-12-03T15:39:25.252Z,58.87
2022-12-03T15:41:53.549Z,55.10
2022-12-03T15:44:22.695Z,55.90
2022-12-03T15:46:52.639Z,53.30
2022-12-03T15:49:20.990Z,55.83
2022-12-03T15:51:49.392Z,57.60
2022-12-03T15:54:17.438Z,56.03
2022-12-03T15:56:45.533Z,50.47
2022-12-03T15:59:14.830Z,54.47
2022-12-03T16:01:43.055Z,55.73
2022-12-03T16:04:12.786Z,58.20
2022-12-03T16:06:41.815Z,55.23
2022-12-03T16:09:10.243Z,50.40
2022-12-03T16:11:39.117Z,48.80
2022-12-03T16:14:07.999Z,56.03
2022-12-03T16:16:36.266Z,52.37
2022-12-03T16:19:04.865Z,48.97
2022-12-03T16:21:35.412Z,51.40
2022-12-03T16:24:04.901Z,49.30
2022-12-03T16:26:34.431Z,51.80
2022-12-03T16:29:03.334Z,50.50
2022-12-03T16:31:31.575Z,51.53
2022-12-03T16:34:00.823Z,50.20
2022-12-03T16:36:30.891Z,48.07
2022-12-03T16:39:01.298Z,46.00
2022-12-03T16:41:30.320Z,51.50
2022-12-03T16:44:02.690Z,51.13
2022-12-03T16:46:31.456Z,45.63
2022-12-03T16:49:00.409Z,49.40
2022-12-03T16:51:31.111Z,50.80
2022-12-03T16:54:00.954Z,52.40
2022-12-03T16:56:29.391Z,54.40
2022-12-03T16:58:58.164Z,46.27
2022-12-03T17:01:26.972Z,50.33
2022-12-03T17:03:56.088Z,45.30
2022-12-03T17:06:24.386Z,52.37
2022-12-03T17:08:52.680Z,46.67
2022-12-03T17:11:22.710Z,47.00
2022-12-03T17:13:50.933Z,49.47
2022-12-03T17:16:19.184Z,50.67
2022-12-03T17:18:47.913Z,53.57
2022-12-03T17:21:16.238Z,53.20
2022-12-03T17:23:44.997Z,58.43
2022-12-03T17:26:14.942Z,57.73
2022-12-03T17:28:44.753Z,60.57
2022-12-03T17:31:14.077Z,58.50
2022-12-03T17:33:42.894Z,56.53
2022-12-03T17:36:11.486Z,49.23
2022-12-03T17:38:39.676Z,56.63
2022-12-03T17:41:08.417Z,61.20
2022-12-03T17:43:36.855Z,54.53
2022-12-03T17:46:07.414Z,54.23
2022-12-03T17:48:36.107Z,56.50
2022-12-03T17:51:04.222Z,52.17
2022-12-03T17:53:33.117Z,61.43
2022-12-03T17:56:01.159Z,57.90
2022-12-03T17:58:29.791Z,56.07
2022-12-03T18:01:02.796Z,55.63
2022-12-03T18:03:33.814Z,55.17
2022-12-03T18:06:02.252Z,60.90
2022-12-03T18:08:30.409Z,55.70
2022-12-03T18:10:58.570Z,55.03
2022-12-03T18:13:27.301Z,54.60
2022-12-03T18:15:56.834Z,59.70
2022-12-03T18:18:25.848Z,58.47
2022-12-03T18:21:02.091Z,59.97
2022-12-03T18:23:30.568Z,58.10
2022-12-03T18:25:59.054Z,58.30
2022-12-03T18:28:32.284Z,59.73
2022-12-03T18:31:01.343Z,57.13
2022-12-03T18:33:29.854Z,56.20
2022-12-03T18:36:00.921Z,59.80
2022-12-03T18:38:31.654Z,54.77
2022-12-03T18:41:01.121Z,63.87
2022-12-03T18:43:39.306Z,59.83
2022-12-03T18:46:31.098Z,58.50
2022-12-03T18:49:01.913Z,59.40
2022-12-03T18:51:32.258Z,61.77
2022-12-03T18:54:01.376Z,59.70
2022-12-03T18:56:31.569Z,66.17
2022-12-03T18:59:00.326Z,57.67
2022-12-03T19:01:29.413Z,53.73
2022-12-03T19:03:59.387Z,51.67
2022-12-03T19:06:31.734Z,58.00
2022-12-03T19:09:02.097Z,51.70
2022-12-03T19:11:31.933Z,49.10
2022-12-03T19:14:03.301Z,49.47
2022-12-03T19:16:33.389Z,49.80
2022-12-03T19:19:06.370Z,48.23
2022-12-03T19:21:38.614Z,49.50
2022-12-03T19:24:25.508Z,53.60
2022-12-03T19:26:56.283Z,54.73
2022-12-03T19:29:26.610Z,57.63
2022-12-03T19:31:55.972Z,55.67
2022-12-03T19:34:25.109Z,57.63
2022-12-03T19:36:56.358Z,57.77
2022-12-03T19:39:26.087Z,57.90
2022-12-03T19:41:59.149Z,55.27
2022-12-03T19:44:31.554Z,66.97
2022-12-03T19:47:02.201Z,55.30
2022-12-03T19:49:34.080Z,61.30
2022-12-03T19:52:04.614Z,63.47
2022-12-03T19:54:35.821Z,59.63
2022-12-03T19:57:05.982Z,64.80
2022-12-03T19:59:37.928Z,62.60
2022-12-03T20:02:08.497Z,64.20
2022-12-03T20:04:39.070Z,67.43
2022-12-03T20:07:10.366Z,65.10
2022-12-03T20:12:26.424Z,61.53
2022-12-03T20:14:55.504Z,65.00
2022-12-03T20:17:24.839Z,63.40
2022-12-03T20:19:54.673Z,69.90
2022-12-03T20:22:25.737Z,66.50
2022-12-03T20:24:56.090Z,65.33
2022-12-03T20:27:25.703Z,62.07
2022-12-03T20:29:57.019Z,62.87
2022-12-03T20:32:26.162Z,58.20
2022-12-03T20:34:55.132Z,60.00
2022-12-03T20:37:27.083Z,68.07
2022-12-03T20:40:00.353Z,64.73
2022-12-03T20:42:31.794Z,66.30
2022-12-03T20:45:01.501Z,56.00
2022-12-03T20:47:31.024Z,65.60
2022-12-03T20:50:01.166Z,60.30
2022-12-03T20:52:32.478Z,65.80
2022-12-03T20:55:01.876Z,65.50
2022-12-03T20:57:36.311Z,58.27
2022-12-03T21:00:06.780Z,55.80
2022-12-03T21:02:38.649Z,62.70
2022-12-03T21:05:09.421Z,62.30
2022-12-03T21:07:39.505Z,63.07
2022-12-03T21:10:30.982Z,70.30
2022-12-03T21:12:59.768Z,70.47
2022-12-03T21:15:28.772Z,69.57
2022-12-03T21:17:58.006Z,59.10
2022-12-03T21:20:26.754Z,66.13
2022-12-03T21:22:57.295Z,67.87
2022-12-03T21:25:26.144Z,64.33
2022-12-03T21:27:55.673Z,60.90
2022-12-03T21:30:23.959Z,66.30
2022-12-03T21:32:52.478Z,66.33
2022-12-03T21:35:20.619Z,62.10
2022-12-03T21:37:50.772Z,67.90
2022-12-03T21:40:20.654Z,60.10
2022-12-03T21:42:49.754Z,67.40
2022-12-03T21:45:18.179Z,57.17
2022-12-03T21:47:49.374Z,63.47
2022-12-03T21:50:18.052Z,62.00
2022-12-03T21:52:46.661Z,63.40
2022-12-03T21:55:14.800Z,69.77
2022-12-03T21:57:45.044Z,62.07
2022-12-03T22:00:14.607Z,73.63
2022-12-03T22:02:42.901Z,64.20
2022-12-03T22:05:15.173Z,66.13
2022-12-03T22:07:43.535Z,67.33
2022-12-03T22:10:14.587Z,63.30
2022-12-03T22:12:44.041Z,68.03
2022-12-03T22:15:18.491Z,64.43
2022-12-03T22:17:47.065Z,70.40
2022-12-03T22:20:15.697Z,67.47
2022-12-03T22:22:43.858Z,69.80
2022-12-03T22:25:11.927Z,65.63
2022-12-03T22:27:40.079Z,61.67
2022-12-03T22:30:10.372Z,70.43
2022-12-03T22:32:38.402Z,68.30
2022-12-03T22:35:07.148Z,71.07
2022-12-03T22:37:35.229Z,68.53
2022-12-03T22:40:03.612Z,72.10
2022-12-03T22:42:31.665Z,69.03
2022-12-03T22:44:59.751Z,73.30
2022-12-03T22:47:29.153Z,72.13
2022-12-03T22:49:57.373Z,71.83
2022-12-03T22:52:25.575Z,71.80
2022-12-03T22:54:53.790Z,81.10
2022-12-03T22:57:22.028Z,72.67
2022-12-03T22:59:50.034Z,72.27
2022-12-03T23:02:18.169Z,74.87
2022-12-03T23:04:47.568Z,76.50
2022-12-03T23:07:15.724Z,73.30
2022-12-03T23:09:43.777Z,68.83
2022-12-03T23:12:12.016Z,80.40
2022-12-03T23:14:40.272Z,76.43
2022-12-03T23:17:08.320Z,69.40
2022-12-03T23:19:36.908Z,68.97
2022-12-03T23:22:06.304Z,80.17
2022-12-03T23:24:34.327Z,62.83
2022-12-03T23:27:02.397Z,73.30
2022-12-03T23:29:30.395Z,71.00
2022-12-03T23:31:58.390Z,66.47
2022-12-03T23:34:26.531Z,72.10
2022-12-03T23:36:54.674Z,73.27
2022-12-03T23:39:24.178Z,73.30
2022-12-03T23:41:54.748Z,66.40
2022-12-03T23:44:34.806Z,61.30
2022-12-03T23:47:05.974Z,69.00
2022-12-03T23:49:36.421Z,66.43
2022-12-03T23:52:07.364Z,65.57
2022-12-03T23:54:47.551Z,66.20
2022-12-03T23:57:17.255Z,62.60
2022-12-03T23:59:53.468Z,68.80
